createdAt,value
2018-03-04T00:01:58.486Z,-2.35
2018-03-04T00:04:25.911Z,-2.37
2018-03-04T00:06:53.381Z,-2.37
2018-03-04T00:09:20.840Z,-2.37
2018-03-04T00:11:48.613Z,-2.34
2018-03-04T00:14:16.065Z,-2.28
2018-03-04T00:16:43.522Z,-2.36
2018-03-04T00:19:10.980Z,-2.41
2018-03-04T00:21:38.444Z,-2.40
2018-03-04T00:24:05.891Z,-2.42
2018-03-04T00:26:33.338Z,-2.44
2018-03-04T00:29:00.772Z,-2.42
2018-03-04T00:31:28.222Z,-2.52
2018-03-04T00:33:55.700Z,-2.48
2018-03-04T00:36:23.204Z,-2.48
2018-03-04T00:38:50.641Z,-2.45
2018-03-04T00:41:18.144Z,-2.48
2018-03-04T00:43:45.570Z,-2.53
2018-03-04T00:46:13.058Z,-2.51
2018-03-04T00:48:40.496Z,-2.53
2018-03-04T00:51:07.986Z,-2.50
2018-03-04T00:53:35.439Z,-2.49
2018-03-04T00:56:02.891Z,-2.55
2018-03-04T00:58:30.347Z,-2.50
2018-03-04T01:00:57.838Z,-2.48
2018-03-04T01:03:25.304Z,-2.45
2018-03-04T01:05:52.766Z,-2.45
2018-03-04T01:08:20.215Z,-2.46
2018-03-04T01:10:47.676Z,-2.45
2018-03-04T01:13:15.103Z,-2.55
2018-03-04T01:15:43.299Z,-2.56
2018-03-04T01:18:10.766Z,-2.55
2018-03-04T01:20:38.826Z,-2.51
2018-03-04T01:23:06.284Z,-2.42
2018-03-04T01:25:35.140Z,-2.47
2018-03-04T01:28:02.779Z,-2.49
2018-03-04T01:30:30.245Z,-2.48
2018-03-04T01:32:57.763Z,-2.46
2018-03-04T01:35:25.319Z,-2.44
2018-03-04T01:37:52.841Z,-2.55
2018-03-04T01:40:20.427Z,-2.52
2018-03-04T01:42:47.944Z,-2.49
2018-03-04T01:45:15.470Z,-2.49
2018-03-04T01:47:42.986Z,-2.50
2018-03-04T01:50:10.615Z,-2.44
2018-03-04T01:52:38.100Z,-2.45
2018-03-04T01:55:05.607Z,-2.43
2018-03-04T01:57:33.131Z,-2.46
2018-03-04T02:00:00.649Z,-2.46
2018-03-04T02:02:28.161Z,-2.44
2018-03-04T02:04:55.646Z,-2.45
2018-03-04T02:07:23.241Z,-2.43
2018-03-04T02:09:50.781Z,-2.40
2018-03-04T02:12:18.429Z,-2.43
2018-03-04T02:14:45.979Z,-2.41
2018-03-04T02:17:13.551Z,-2.40
2018-03-04T02:19:41.043Z,-2.43
2018-03-04T02:22:08.635Z,-2.53
2018-03-04T02:24:37.725Z,-2.46
2018-03-04T02:27:05.253Z,-2.45
2018-03-04T02:29:33.969Z,-2.48
2018-03-04T02:32:02.718Z,-2.45
2018-03-04T02:34:30.225Z,-2.45
2018-03-04T02:36:58.639Z,-2.42
2018-03-04T02:39:26.266Z,-2.45
2018-03-04T02:41:53.741Z,-2.41
2018-03-04T02:44:21.346Z,-2.40
2018-03-04T02:46:48.829Z,-2.37
2018-03-04T02:51:58.191Z,-2.41
2018-03-04T02:54:25.687Z,-2.44
2018-03-04T02:56:58.092Z,-2.45
2018-03-04T02:59:25.572Z,-2.48
2018-03-04T03:01:52.988Z,-2.47
2018-03-04T03:04:20.424Z,-2.54
2018-03-04T03:06:47.908Z,-2.54
2018-03-04T03:09:15.397Z,-2.57
2018-03-04T03:11:42.894Z,-2.56
2018-03-04T03:14:10.351Z,-2.55
2018-03-04T03:16:37.807Z,-2.56
2018-03-04T03:19:05.235Z,-2.58
2018-03-04T03:21:32.702Z,-2.54
2018-03-04T03:24:00.156Z,-2.56
2018-03-04T03:26:27.585Z,-2.56
2018-03-04T03:28:55.039Z,-2.59
2018-03-04T03:31:22.471Z,-2.70
2018-03-04T03:33:49.954Z,-2.69
2018-03-04T03:36:17.445Z,-2.74
2018-03-04T03:38:44.903Z,-2.85
2018-03-04T03:41:12.631Z,-2.77
2018-03-04T03:43:40.080Z,-2.80
2018-03-04T03:46:07.516Z,-2.84
2018-03-04T03:48:34.947Z,-2.88
2018-03-04T03:51:02.392Z,-2.90
2018-03-04T03:53:29.835Z,-2.95
2018-03-04T03:55:57.280Z,-2.95
2018-03-04T03:58:24.741Z,-2.92
2018-03-04T04:00:52.175Z,-2.89
2018-03-04T04:03:19.625Z,-2.91
2018-03-04T04:05:52.005Z,-2.95
2018-03-04T04:08:19.456Z,-2.87
2018-03-04T04:10:46.888Z,-2.87
2018-03-04T04:13:14.321Z,-2.89
2018-03-04T04:15:41.768Z,-2.82
2018-03-04T04:18:09.218Z,-2.83
2018-03-04T04:20:36.669Z,-2.82
2018-03-04T04:23:04.127Z,-2.80
2018-03-04T04:25:31.576Z,-2.84
2018-03-04T04:27:59.139Z,-2.86
2018-03-04T04:30:26.609Z,-2.81
2018-03-04T04:32:54.079Z,-2.87
2018-03-04T04:35:21.520Z,-2.82
2018-03-04T04:37:48.994Z,-2.77
2018-03-04T04:40:16.451Z,-2.81
2018-03-04T04:42:43.902Z,-2.74
2018-03-04T04:45:11.363Z,-2.67
2018-03-04T04:47:38.820Z,-2.68
2018-03-04T04:50:06.262Z,-2.64
2018-03-04T04:52:33.716Z,-2.63
2018-03-04T04:55:01.178Z,-2.59
2018-03-04T04:57:28.637Z,-2.65
2018-03-04T04:59:56.109Z,-2.63
2018-03-04T05:02:23.570Z,-2.60
2018-03-04T05:04:51.010Z,-2.60
2018-03-04T05:07:18.488Z,-2.62
2018-03-04T05:09:45.930Z,-2.69
2018-03-04T05:12:13.392Z,-2.65
2018-03-04T05:14:40.832Z,-2.62
2018-03-04T05:17:08.271Z,-2.61
2018-03-04T05:19:35.728Z,-2.62
2018-03-04T05:22:04.585Z,-2.63
2018-03-04T05:24:32.073Z,-2.63
2018-03-04T05:27:00.437Z,-2.65
2018-03-04T05:29:27.933Z,-2.66
2018-03-04T05:31:55.418Z,-2.67
2018-03-04T05:37:04.806Z,-2.66
2018-03-04T05:39:32.278Z,-2.69
2018-03-04T05:41:59.707Z,-2.66
2018-03-04T05:44:27.146Z,-2.73
2018-03-04T05:46:54.613Z,-2.70
2018-03-04T05:49:22.067Z,-2.66
2018-03-04T05:51:49.498Z,-2.62
2018-03-04T05:54:16.950Z,-2.67
2018-03-04T05:56:44.390Z,-2.66
2018-03-04T05:59:12.696Z,-2.65
2018-03-04T06:01:41.068Z,-2.67
2018-03-04T06:04:08.529Z,-2.65
2018-03-04T06:06:35.984Z,-2.61
2018-03-04T06:09:03.436Z,-2.65
2018-03-04T06:11:30.902Z,-2.64
2018-03-04T06:13:58.378Z,-2.65
2018-03-04T06:16:25.832Z,-2.63
2018-03-04T06:18:53.346Z,-2.59
2018-03-04T06:21:20.790Z,-2.55
2018-03-04T06:23:48.255Z,-2.65
2018-03-04T06:26:15.719Z,-2.58
2018-03-04T06:28:43.159Z,-2.56
2018-03-04T06:31:10.611Z,-2.53
2018-03-04T06:33:38.051Z,-2.50
2018-03-04T06:36:05.505Z,-2.47
2018-03-04T06:38:32.949Z,-2.47
2018-03-04T06:41:00.400Z,-2.40
2018-03-04T06:43:27.832Z,-2.40
2018-03-04T06:45:55.265Z,-2.36
2018-03-04T06:48:22.708Z,-2.29
2018-03-04T06:50:50.190Z,-2.29
2018-03-04T06:53:17.646Z,-2.27
2018-03-04T06:55:45.110Z,-2.28
2018-03-04T06:58:12.552Z,-2.27
2018-03-04T07:00:39.976Z,-2.24
2018-03-04T07:03:07.424Z,-2.19
2018-03-04T07:05:34.874Z,-2.17
2018-03-04T07:08:02.327Z,-2.13
2018-03-04T07:10:29.808Z,-2.11
2018-03-04T07:12:57.208Z,-2.05
2018-03-04T07:15:24.659Z,-2.01
2018-03-04T07:17:52.088Z,-1.96
2018-03-04T07:20:19.564Z,-1.92
2018-03-04T07:22:47.020Z,-1.89
2018-03-04T07:25:14.520Z,-1.85
2018-03-04T07:27:41.958Z,-1.76
2018-03-04T07:30:09.442Z,-1.60
2018-03-04T07:32:36.887Z,-1.46
2018-03-04T07:35:04.417Z,-1.39
2018-03-04T07:37:31.830Z,-1.37
2018-03-04T07:39:59.286Z,-1.35
2018-03-04T07:42:27.004Z,-1.37
2018-03-04T07:44:54.459Z,-1.36
2018-03-04T07:47:31.503Z,-1.37
2018-03-04T07:49:58.987Z,-1.33
2018-03-04T07:52:26.453Z,-1.31
2018-03-04T07:54:53.964Z,-1.32
2018-03-04T07:57:21.396Z,-1.27
2018-03-04T07:59:48.879Z,-1.27
2018-03-04T08:02:16.338Z,-1.20
2018-03-04T08:04:43.775Z,-1.19
2018-03-04T08:07:11.284Z,-1.14
2018-03-04T08:09:38.739Z,-1.07
2018-03-04T08:12:06.191Z,-1.06
2018-03-04T08:14:33.661Z,-0.97
2018-03-04T08:17:01.152Z,-0.90
2018-03-04T08:19:28.612Z,-0.89
2018-03-04T08:21:56.133Z,-0.84
2018-03-04T08:24:35.419Z,-0.81
2018-03-04T08:27:14.640Z,-0.73
2018-03-04T08:29:42.108Z,-0.62
2018-03-04T08:32:09.615Z,-0.57
2018-03-04T08:34:37.109Z,-0.49
2018-03-04T08:37:04.565Z,-0.43
2018-03-04T08:39:32.074Z,-0.39
2018-03-04T08:41:59.477Z,-0.32
2018-03-04T08:44:26.952Z,-0.27
2018-03-04T08:46:54.453Z,-0.22
2018-03-04T08:49:21.945Z,-0.15
2018-03-04T08:51:49.414Z,-0.11
2018-03-04T08:54:16.872Z,-0.02
2018-03-04T08:56:44.425Z,0.07
2018-03-04T08:59:11.868Z,0.14
2018-03-04T09:01:39.343Z,0.25
2018-03-04T09:04:06.805Z,0.35
2018-03-04T09:06:34.279Z,0.44
2018-03-04T09:09:01.826Z,0.54
2018-03-04T09:11:29.280Z,0.66
2018-03-04T09:13:56.746Z,0.73
2018-03-04T09:16:24.221Z,0.77
2018-03-04T09:18:51.685Z,0.82
2018-03-04T09:21:19.152Z,0.93
2018-03-04T09:23:46.620Z,1.07
2018-03-04T09:26:14.105Z,1.18
2018-03-04T09:28:41.700Z,1.36
2018-03-04T09:31:09.129Z,1.50
2018-03-04T09:33:36.605Z,1.67
2018-03-04T09:36:04.118Z,2.22
2018-03-04T09:38:31.622Z,2.85
2018-03-04T09:40:59.075Z,3.54
2018-03-04T09:43:26.553Z,4.94
2018-03-04T09:45:59.241Z,6.85
2018-03-04T09:48:26.721Z,7.85
2018-03-04T09:50:54.225Z,9.10
2018-03-04T09:53:21.680Z,9.97
2018-03-04T09:55:49.177Z,9.68
2018-03-04T09:58:16.659Z,9.06
2018-03-04T10:00:44.231Z,8.55
2018-03-04T10:03:11.804Z,8.57
2018-03-04T10:05:39.263Z,7.89
2018-03-04T10:08:06.731Z,7.02
2018-03-04T10:10:34.196Z,6.18
2018-03-04T10:13:01.645Z,5.59
2018-03-04T10:15:29.105Z,5.26
2018-03-04T10:17:56.745Z,4.87
2018-03-04T10:20:24.216Z,4.75
2018-03-04T10:22:51.696Z,4.71
2018-03-04T10:25:19.167Z,5.04
2018-03-04T10:27:46.661Z,5.93
2018-03-04T10:30:15.351Z,7.31
2018-03-04T10:32:42.873Z,8.86
2018-03-04T10:35:10.667Z,10.31
2018-03-04T10:37:38.226Z,10.71
2018-03-04T10:40:05.751Z,11.05
2018-03-04T10:42:33.235Z,11.60
2018-03-04T10:45:00.720Z,11.44
2018-03-04T10:47:28.219Z,11.39
2018-03-04T10:49:55.697Z,11.41
2018-03-04T10:52:23.236Z,11.85
2018-03-04T10:54:50.746Z,11.56
2018-03-04T10:57:18.215Z,11.25
2018-03-04T10:59:45.693Z,10.57
2018-03-04T11:02:18.800Z,10.56
2018-03-04T11:04:46.251Z,10.15
2018-03-04T11:07:13.771Z,10.18
2018-03-04T11:09:41.266Z,10.38
2018-03-04T11:12:08.706Z,9.85
2018-03-04T11:14:36.179Z,10.17
2018-03-04T11:17:03.755Z,10.01
2018-03-04T11:19:31.225Z,9.80
2018-03-04T11:21:58.722Z,9.45
2018-03-04T11:24:26.205Z,8.86
2018-03-04T11:26:53.665Z,8.92
2018-03-04T11:29:21.126Z,8.75
2018-03-04T11:31:48.587Z,8.68
2018-03-04T11:34:16.120Z,8.70
2018-03-04T11:36:43.565Z,8.63
2018-03-04T11:39:11.016Z,8.86
2018-03-04T11:41:38.492Z,8.93
2018-03-04T11:44:06.019Z,9.20
2018-03-04T11:46:33.485Z,9.25
2018-03-04T11:49:00.935Z,9.39
2018-03-04T11:51:28.411Z,9.72
2018-03-04T11:53:55.879Z,10.07
2018-03-04T11:56:23.377Z,10.30
2018-03-04T11:58:50.853Z,10.85
2018-03-04T12:01:18.319Z,11.21
2018-03-04T12:03:45.802Z,11.77
2018-03-04T12:06:13.289Z,12.37
2018-03-04T12:08:40.757Z,12.76
2018-03-04T12:11:08.230Z,12.83
2018-03-04T12:13:35.730Z,12.95
2018-03-04T12:16:03.182Z,13.53
2018-03-04T12:18:30.695Z,13.82
2018-03-04T12:20:58.160Z,13.84
2018-03-04T12:23:25.608Z,13.57
2018-03-04T12:25:53.162Z,14.07
2018-03-04T12:28:20.672Z,14.61
2018-03-04T12:30:48.126Z,15.04
2018-03-04T12:33:15.660Z,15.15
2018-03-04T12:35:43.111Z,15.64
2018-03-04T12:38:10.635Z,15.38
2018-03-04T12:40:38.135Z,15.61
2018-03-04T12:43:05.617Z,15.70
2018-03-04T12:45:33.183Z,15.08
2018-03-04T12:48:00.751Z,15.28
2018-03-04T12:50:28.226Z,15.01
2018-03-04T12:52:55.791Z,14.81
2018-03-04T12:55:23.269Z,14.74
2018-03-04T12:57:50.735Z,14.38
2018-03-04T13:00:18.179Z,13.75
2018-03-04T13:02:45.732Z,13.21
2018-03-04T13:05:13.148Z,12.77
2018-03-04T13:07:40.711Z,12.36
2018-03-04T13:10:08.252Z,12.76
2018-03-04T13:12:35.800Z,13.31
2018-03-04T13:15:03.284Z,14.36
2018-03-04T13:17:30.789Z,15.04
2018-03-04T13:19:58.292Z,15.56
2018-03-04T13:22:25.754Z,15.79
2018-03-04T13:24:53.254Z,15.69
2018-03-04T13:27:20.756Z,16.36
2018-03-04T13:29:48.202Z,16.89
2018-03-04T13:32:15.726Z,17.06
2018-03-04T13:34:43.186Z,17.43
2018-03-04T13:37:10.688Z,17.25
2018-03-04T13:39:38.143Z,17.69
2018-03-04T13:42:05.652Z,17.02
2018-03-04T13:44:33.115Z,16.61
2018-03-04T13:47:00.636Z,16.31
2018-03-04T13:49:28.110Z,15.74
2018-03-04T13:51:55.614Z,16.15
2018-03-04T13:54:23.074Z,16.00
2018-03-04T13:56:50.522Z,15.81
2018-03-04T13:59:17.998Z,15.61
2018-03-04T14:01:45.479Z,15.75
2018-03-04T14:04:12.950Z,15.91
2018-03-04T14:06:40.436Z,15.43
2018-03-04T14:09:07.929Z,15.11
2018-03-04T14:11:35.383Z,14.54
2018-03-04T14:14:02.838Z,14.28
2018-03-04T14:16:30.318Z,14.20
2018-03-04T14:18:57.768Z,13.66
2018-03-04T14:21:25.234Z,13.24
2018-03-04T14:23:52.806Z,13.42
2018-03-04T14:26:20.289Z,13.81
2018-03-04T14:28:47.824Z,13.48
2018-03-04T14:31:15.320Z,12.96
2018-03-04T14:33:42.798Z,12.69
2018-03-04T14:36:10.282Z,12.54
2018-03-04T14:38:37.751Z,12.25
2018-03-04T14:41:05.305Z,11.83
2018-03-04T14:43:32.761Z,11.45
2018-03-04T14:46:00.236Z,11.16
2018-03-04T14:48:27.690Z,10.90
2018-03-04T14:50:55.324Z,10.69
2018-03-04T14:53:22.766Z,10.44
2018-03-04T14:55:50.242Z,10.22
2018-03-04T14:58:17.716Z,10.13
2018-03-04T15:00:45.193Z,10.03
2018-03-04T15:03:12.662Z,9.91
2018-03-04T15:05:40.142Z,9.78
2018-03-04T15:08:07.604Z,9.75
2018-03-04T15:10:35.049Z,9.64
2018-03-04T15:13:02.584Z,9.60
2018-03-04T15:15:30.047Z,9.54
2018-03-04T15:17:57.590Z,9.52
2018-03-04T15:20:25.051Z,9.43
2018-03-04T15:22:52.587Z,9.36
2018-03-04T15:25:20.016Z,9.34
2018-03-04T15:27:47.578Z,9.30
2018-03-04T15:30:15.101Z,9.27
2018-03-04T15:32:42.563Z,9.22
2018-03-04T15:35:10.105Z,9.15
2018-03-04T15:37:37.610Z,9.12
2018-03-04T15:40:05.053Z,9.05
2018-03-04T15:42:32.514Z,8.98
2018-03-04T15:45:00.011Z,8.91
2018-03-04T15:47:27.472Z,8.88
2018-03-04T15:49:54.965Z,8.82
2018-03-04T15:52:22.431Z,8.80
2018-03-04T15:54:49.880Z,8.76
2018-03-04T15:57:17.356Z,8.73
2018-03-04T15:59:44.867Z,8.71
2018-03-04T16:02:12.447Z,8.69
2018-03-04T16:04:39.855Z,8.66
2018-03-04T16:07:07.353Z,8.60
2018-03-04T16:09:34.854Z,8.56
2018-03-04T16:12:02.366Z,8.50
2018-03-04T16:14:30.491Z,8.48
2018-03-04T16:16:58.537Z,8.54
2018-03-04T16:19:26.638Z,8.53
2018-03-04T16:21:54.123Z,8.48
2018-03-04T16:24:22.468Z,8.43
2018-03-04T16:26:50.007Z,8.36
2018-03-04T16:29:18.339Z,8.30
2018-03-04T16:31:45.814Z,8.26
2018-03-04T16:34:14.645Z,8.24
2018-03-04T16:36:42.152Z,8.17
2018-03-04T16:39:09.653Z,8.10
2018-03-04T16:41:37.156Z,8.07
2018-03-04T16:44:04.644Z,8.02
2018-03-04T16:46:32.172Z,7.95
2018-03-04T16:49:00.404Z,7.92
2018-03-04T16:51:27.957Z,7.86
2018-03-04T16:53:56.658Z,7.81
2018-03-04T16:56:24.114Z,7.73
2018-03-04T16:58:52.115Z,7.69
2018-03-04T17:01:19.681Z,7.61
2018-03-04T17:03:47.149Z,7.61
2018-03-04T17:06:15.008Z,7.54
2018-03-04T17:08:42.452Z,7.50
2018-03-04T17:11:09.888Z,7.46
2018-03-04T17:13:37.400Z,7.37
2018-03-04T17:16:04.832Z,7.31
2018-03-04T17:18:32.369Z,7.30
2018-03-04T17:20:59.860Z,7.22
2018-03-04T17:23:27.366Z,7.16
2018-03-04T17:25:54.856Z,7.14
2018-03-04T17:28:23.280Z,7.07
2018-03-04T17:30:50.815Z,7.03
2018-03-04T17:33:18.333Z,6.98
2018-03-04T17:35:45.872Z,6.93
2018-03-04T17:38:13.357Z,6.90
2018-03-04T17:40:40.794Z,6.88
2018-03-04T17:43:08.271Z,6.83
2018-03-04T17:48:17.494Z,6.79
2018-03-04T17:50:44.989Z,6.75
2018-03-04T17:53:12.627Z,6.72
2018-03-04T17:55:40.125Z,6.64
2018-03-04T17:58:07.581Z,6.63
2018-03-04T18:00:35.094Z,6.58
2018-03-04T18:03:02.616Z,6.59
2018-03-04T18:05:30.123Z,6.51
2018-03-04T18:07:57.615Z,6.52
2018-03-04T18:10:25.100Z,6.48
2018-03-04T18:12:52.677Z,6.48
2018-03-04T18:15:20.151Z,6.45
2018-03-04T18:17:47.621Z,6.37
2018-03-04T18:20:15.086Z,6.26
2018-03-04T18:22:42.539Z,6.26
2018-03-04T18:25:09.998Z,6.21
2018-03-04T18:27:37.481Z,6.21
2018-03-04T18:30:05.015Z,6.21
2018-03-04T18:32:32.578Z,6.15
2018-03-04T18:35:00.070Z,6.15
2018-03-04T18:37:28.040Z,6.18
2018-03-04T18:39:55.928Z,6.17
2018-03-04T18:42:23.407Z,6.16
2018-03-04T18:44:50.875Z,6.05
2018-03-04T18:47:18.397Z,6.05
2018-03-04T18:49:45.918Z,6.05
2018-03-04T18:52:13.463Z,5.98
2018-03-04T18:57:22.909Z,5.92
2018-03-04T18:59:50.393Z,5.93
2018-03-04T19:02:18.559Z,5.95
2018-03-04T19:04:46.098Z,5.87
2018-03-04T19:07:13.842Z,5.80
2018-03-04T19:09:41.471Z,5.77
2018-03-04T19:12:09.058Z,5.76
2018-03-04T19:14:36.552Z,5.69
2018-03-04T19:17:04.709Z,5.72
2018-03-04T19:19:32.181Z,5.65
2018-03-04T19:21:59.659Z,5.58
2018-03-04T19:24:27.191Z,5.57
2018-03-04T19:26:59.722Z,5.53
2018-03-04T19:29:27.202Z,5.53
2018-03-04T19:31:54.675Z,5.48
2018-03-04T19:34:22.149Z,5.45
2018-03-04T19:36:49.669Z,5.46
2018-03-04T19:39:17.226Z,5.40
2018-03-04T19:41:44.669Z,5.39
2018-03-04T19:44:12.207Z,5.37
2018-03-04T19:46:39.704Z,5.34
2018-03-04T19:49:07.184Z,5.33
2018-03-04T19:51:34.663Z,5.32
2018-03-04T19:54:02.157Z,5.31
2018-03-04T19:56:29.718Z,5.32
2018-03-04T19:58:57.251Z,5.29
2018-03-04T20:01:24.679Z,5.26
2018-03-04T20:03:52.171Z,5.21
2018-03-04T20:06:19.640Z,5.18
2018-03-04T20:08:47.193Z,5.19
2018-03-04T20:11:14.730Z,5.15
2018-03-04T20:13:42.225Z,5.14
2018-03-04T20:16:09.835Z,5.12
2018-03-04T20:18:37.409Z,5.01
2018-03-04T20:21:04.895Z,4.95
2018-03-04T20:23:32.382Z,4.89
2018-03-04T20:25:59.939Z,4.87
2018-03-04T20:28:27.471Z,4.83
2018-03-04T20:30:54.951Z,4.80
2018-03-04T20:33:22.455Z,4.77
2018-03-04T20:35:50.049Z,4.82
2018-03-04T20:38:17.562Z,4.80
2018-03-04T20:40:45.074Z,4.78
2018-03-04T20:43:12.550Z,4.76
2018-03-04T20:45:40.075Z,4.74
2018-03-04T20:48:07.633Z,4.76
2018-03-04T20:50:35.163Z,4.71
2018-03-04T20:53:02.634Z,4.65
2018-03-04T20:55:30.141Z,4.70
2018-03-04T20:57:57.665Z,4.67
2018-03-04T21:00:25.131Z,4.59
2018-03-04T21:02:52.614Z,4.54
2018-03-04T21:05:20.905Z,4.56
2018-03-04T21:07:48.411Z,4.57
2018-03-04T21:10:15.891Z,4.53
2018-03-04T21:12:43.455Z,4.51
2018-03-04T21:15:10.883Z,4.46
2018-03-04T21:17:38.417Z,4.44
2018-03-04T21:20:05.929Z,4.45
2018-03-04T21:22:33.439Z,4.48
2018-03-04T21:25:01.169Z,4.41
2018-03-04T21:27:28.624Z,4.42
2018-03-04T21:29:56.129Z,4.40
2018-03-04T21:32:23.636Z,4.39
2018-03-04T21:34:51.085Z,4.38
2018-03-04T21:37:18.575Z,4.36
2018-03-04T21:39:46.075Z,4.35
2018-03-04T21:42:13.611Z,4.37
2018-03-04T21:44:41.041Z,4.30
2018-03-04T21:47:09.396Z,4.29
2018-03-04T21:49:36.876Z,4.30
2018-03-04T21:52:04.311Z,4.30
2018-03-04T21:54:31.815Z,4.32
2018-03-04T21:56:59.318Z,4.32
2018-03-04T21:59:26.808Z,4.34
2018-03-04T22:01:54.277Z,4.30
2018-03-04T22:04:21.788Z,4.25
2018-03-04T22:06:49.299Z,4.24
2018-03-04T22:09:16.811Z,4.18
2018-03-04T22:11:44.260Z,4.25
2018-03-04T22:14:11.699Z,4.25
2018-03-04T22:16:39.195Z,4.22
2018-03-04T22:19:06.727Z,4.22
2018-03-04T22:21:34.212Z,4.21
2018-03-04T22:24:01.755Z,4.17
2018-03-04T22:26:29.303Z,4.14
2018-03-04T22:28:56.758Z,4.15
2018-03-04T22:31:24.230Z,4.19
2018-03-04T22:33:51.715Z,4.19
2018-03-04T22:36:19.211Z,4.15
2018-03-04T22:38:46.700Z,4.15
2018-03-04T22:41:14.229Z,4.16
2018-03-04T22:43:41.718Z,4.15
2018-03-04T22:46:09.267Z,4.16
2018-03-04T22:48:36.902Z,4.13
2018-03-04T22:51:04.367Z,4.11
2018-03-04T22:53:31.863Z,4.06
2018-03-04T22:55:59.339Z,4.03
2018-03-04T22:58:26.778Z,4.02
2018-03-04T23:00:54.318Z,4.03
2018-03-04T23:03:21.766Z,4.06
2018-03-04T23:05:49.208Z,4.04
2018-03-04T23:08:16.655Z,4.06
2018-03-04T23:10:44.093Z,4.05
2018-03-04T23:13:11.566Z,4.08
2018-03-04T23:15:39.013Z,4.08
2018-03-04T23:18:06.498Z,4.07
2018-03-04T23:20:34.072Z,4.06
2018-03-04T23:23:01.523Z,4.08
2018-03-04T23:25:28.988Z,4.09
2018-03-04T23:27:56.442Z,4.08
2018-03-04T23:30:23.879Z,4.07
2018-03-04T23:32:51.324Z,4.07
2018-03-04T23:35:18.762Z,4.07
2018-03-04T23:37:46.229Z,4.10
2018-03-04T23:40:13.692Z,4.12
2018-03-04T23:42:41.146Z,4.11
2018-03-04T23:45:08.581Z,4.12
2018-03-04T23:47:36.028Z,4.12
2018-03-04T23:50:03.537Z,4.10
2018-03-04T23:52:30.977Z,4.05
2018-03-04T23:54:58.438Z,4.06
2018-03-04T23:57:25.914Z,4.08
2018-03-04T23:59:53.380Z,4.04
